Time;durP1;ratioP1;P1;durP2;ratioP2;P2;SDS_P1;SDS_P2;PMS_P1;PMS_P2;Temp;Humidity;BMP_temperature;BMP_pressure;BME280_temperature;BME280_humidity;BME280_pressure;Samples;Min_cycle;Max_cycle;Signal;HPM_P1;HPM_P2
2022/12/22 03:28:05;;;;;;;26.42;25.02;;;;;;;;;;5012249;28;20423;-47
2022/12/22 03:30:31;;;;;;;26.58;25.17;;;;;;;;;;5014334;28;20132;-50
2022/12/22 03:32:56;;;;;;;26.23;24.83;;;;;;;;;;5017003;28;20646;-47
2022/12/22 03:35:22;;;;;;;27.33;25.85;;;;;;;;;;5017212;28;20029;-50
2022/12/22 03:37:47;;;;;;;28.83;26.92;;;;;;;;;;5016080;28;20126;-48
2022/12/22 03:40:12;;;;;;;26.25;24.85;;;;;;;;;;5015090;28;20037;-48
2022/12/22 03:48:05;;;;;;;24.55;23.25;;;;;;;;;;5014066;28;20669;-48
2022/12/22 03:50:31;;;;;;;24.77;23.45;;;;;;;;;;5014830;28;20044;-51
2022/12/22 03:52:56;;;;;;;25.98;24.58;;;;;;;;;;5014921;28;20460;-49
2022/12/22 03:55:21;;;;;;;24.95;23.63;;;;;;;;;;5013880;28;20025;-52
2022/12/22 03:57:47;;;;;;;24.20;22.80;;;;;;;;;;5012482;28;20029;-51
2022/12/22 04:00:13;;;;;;;26.00;24.60;;;;;;;;;;5012058;28;20091;-54
2022/12/22 04:02:38;;;;;;;25.40;24.00;;;;;;;;;;5014897;28;20109;-53
2022/12/22 04:05:04;;;;;;;22.67;21.45;;;;;;;;;;5017334;28;20378;-53
2022/12/22 04:07:29;;;;;;;22.88;21.65;;;;;;;;;;5013763;28;20061;-49
2022/12/22 04:12:53;;;;;;;23.90;22.63;;;;;;;;;;5012929;28;20140;-52
2022/12/22 04:15:26;;;;;;;23.40;22.13;;;;;;;;;;5014482;28;20440;-51
2022/12/22 04:17:52;;;;;;;22.52;21.30;;;;;;;;;;5014194;28;20033;-52
2022/12/22 04:20:20;;;;;;;21.25;19.90;;;;;;;;;;5012724;28;20030;-50
2022/12/22 04:22:45;;;;;;;22.02;20.83;;;;;;;;;;5014236;28;20033;-52
2022/12/22 04:25:12;;;;;;;19.90;18.80;;;;;;;;;;5010546;28;20048;-52
2022/12/22 04:27:38;;;;;;;21.85;20.63;;;;;;;;;;5010223;28;20137;-51
2022/12/22 04:30:05;;;;;;;20.02;18.92;;;;;;;;;;5011806;28;20044;-48
2022/12/22 04:32:30;;;;;;;20.63;19.52;;;;;;;;;;5009808;28;20046;-52
2022/12/22 04:34:55;;;;;;;20.88;19.55;;;;;;;;;;5014682;28;20040;-49
2022/12/22 04:37:21;;;;;;;18.55;17.55;;;;;;;;;;5014049;28;20145;-50
2022/12/22 04:39:46;;;;;;;19.77;18.67;;;;;;;;;;5017060;28;20091;-48
2022/12/22 04:42:11;;;;;;;18.70;17.70;;;;;;;;;;5014227;28;20104;-47
2022/12/22 04:44:37;;;;;;;18.92;17.90;;;;;;;;;;5013038;28;20545;-50
2022/12/22 04:47:02;;;;;;;18.48;17.45;;;;;;;;;;5013727;28;20033;-48
2022/12/22 04:49:27;;;;;;;19.02;17.85;;;;;;;;;;5010763;28;20034;-54
2022/12/22 04:51:53;;;;;;;17.70;16.70;;;;;;;;;;5013785;28;20562;-50
2022/12/22 04:54:18;;;;;;;17.75;16.65;;;;;;;;;;5012935;28;20099;-51
2022/12/22 04:56:43;;;;;;;19.02;17.92;;;;;;;;;;5012590;28;20044;-48
2022/12/22 04:59:09;;;;;;;18.45;17.45;;;;;;;;;;5010795;28;20038;-49
2022/12/22 05:01:34;;;;;;;19.58;18.48;;;;;;;;;;5012066;28;20108;-49
2022/12/22 05:04:00;;;;;;;18.40;17.20;;;;;;;;;;5012168;28;20036;-49
2022/12/22 05:06:25;;;;;;;19.23;18.13;;;;;;;;;;5011119;28;20554;-49
2022/12/22 05:08:50;;;;;;;19.38;18.27;;;;;;;;;;5011188;28;20635;-51
2022/12/22 05:11:16;;;;;;;22.98;19.17;;;;;;;;;;5012369;28;20038;-53
2022/12/22 05:13:41;;;;;;;18.70;17.70;;;;;;;;;;5011261;28;20021;-50
2022/12/22 05:16:09;;;;;;;19.30;18.20;;;;;;;;;;5014215;28;20042;-50
2022/12/22 05:18:35;;;;;;;19.13;18.02;;;;;;;;;;5016734;28;20045;-53
2022/12/22 05:21:06;;;;;;;18.65;17.60;;;;;;;;;;5015152;28;20455;-50
2022/12/22 05:23:32;;;;;;;18.65;17.55;;;;;;;;;;5013816;28;20025;-52
2022/12/22 05:25:57;;;;;;;20.95;19.65;;;;;;;;;;5013486;28;20072;-52
2022/12/22 05:28:23;;;;;;;18.95;17.85;;;;;;;;;;5012040;28;20041;-53
2022/12/22 05:30:48;;;;;;;18.70;17.70;;;;;;;;;;5013586;28;20162;-54
2022/12/22 05:33:14;;;;;;;18.65;17.60;;;;;;;;;;5012028;28;20044;-53
2022/12/22 05:35:39;;;;;;;17.23;16.23;;;;;;;;;;5013700;28;20040;-59
2022/12/22 05:38:04;;;;;;;18.52;17.42;;;;;;;;;;5013844;28;20025;-59
2022/12/22 05:40:30;;;;;;;17.23;16.23;;;;;;;;;;5012994;28;20391;-53
2022/12/22 05:42:55;;;;;;;20.15;19.05;;;;;;;;;;5013615;28;20113;-53
2022/12/22 05:45:21;;;;;;;19.00;17.92;;;;;;;;;;5011622;28;20569;-51
2022/12/22 05:47:48;;;;;;;19.38;18.30;;;;;;;;;;5013427;28;20052;-53
2022/12/22 05:50:15;;;;;;;18.88;17.83;;;;;;;;;;5013092;28;20044;-50
2022/12/22 05:52:41;;;;;;;20.77;19.67;;;;;;;;;;5013168;28;20132;-51
2022/12/22 05:55:07;;;;;;;20.67;19.48;;;;;;;;;;5013300;28;20081;-47
2022/12/22 05:57:33;;;;;;;19.70;18.60;;;;;;;;;;5011944;28;20034;-50
2022/12/22 05:59:59;;;;;;;20.17;19.00;;;;;;;;;;5012362;28;20619;-52
2022/12/22 06:02:24;;;;;;;20.42;19.23;;;;;;;;;;5014266;28;20104;-50
2022/12/22 06:04:50;;;;;;;17.90;16.90;;;;;;;;;;5009897;28;20033;-50
2022/12/22 06:07:15;;;;;;;18.70;17.70;;;;;;;;;;5012508;28;20118;-53
2022/12/22 06:09:40;;;;;;;19.45;18.33;;;;;;;;;;5011597;28;20037;-49
2022/12/22 06:12:06;;;;;;;21.45;20.25;;;;;;;;;;5010371;28;20053;-52
2022/12/22 06:14:32;;;;;;;20.27;19.17;;;;;;;;;;5009357;28;20118;-49
2022/12/22 06:16:57;;;;;;;19.55;18.45;;;;;;;;;;5009352;28;20176;-53
2022/12/22 06:19:23;;;;;;;19.80;18.70;;;;;;;;;;5008309;28;20109;-50
2022/12/22 06:21:48;;;;;;;18.85;17.83;;;;;;;;;;5012610;28;20721;-47
2022/12/22 06:24:13;;;;;;;18.27;17.27;;;;;;;;;;5011990;28;20073;-49
2022/12/22 06:26:39;;;;;;;18.55;17.55;;;;;;;;;;5011604;28;20049;-52
2022/12/22 06:29:04;;;;;;;19.00;18.00;;;;;;;;;;5012856;28;20060;-50
2022/12/22 06:31:29;;;;;;;18.90;17.90;;;;;;;;;;5013324;28;20456;-52
2022/12/22 06:33:55;;;;;;;18.70;17.70;;;;;;;;;;5012164;28;20484;-50
2022/12/22 06:36:20;;;;;;;17.98;16.88;;;;;;;;;;5013114;28;20532;-59
2022/12/22 06:38:45;;;;;;;18.05;17.05;;;;;;;;;;5012481;28;20052;-59
2022/12/22 06:41:11;;;;;;;17.00;16.10;;;;;;;;;;5014313;28;20088;-59
2022/12/22 06:43:36;;;;;;;18.33;17.33;;;;;;;;;;5012669;28;20051;-59
2022/12/22 06:46:01;;;;;;;16.83;15.90;;;;;;;;;;5013794;28;20407;-60
2022/12/22 06:48:26;;;;;;;19.23;16.02;;;;;;;;;;5010188;28;20038;-59
2022/12/22 06:50:57;;;;;;;18.60;17.60;;;;;;;;;;5010721;28;20041;-52
2022/12/22 06:53:22;;;;;;;14.90;14.07;;;;;;;;;;5010044;28;20026;-49
2022/12/22 06:55:48;;;;;;;16.38;15.48;;;;;;;;;;5009909;28;20049;-60
2022/12/22 06:58:13;;;;;;;16.08;15.18;;;;;;;;;;5008899;28;20530;-60
2022/12/22 07:00:38;;;;;;;14.35;13.55;;;;;;;;;;5011907;28;20105;-59
2022/12/22 07:03:04;;;;;;;15.27;14.38;;;;;;;;;;5014507;28;20033;-59
2022/12/22 07:05:30;;;;;;;15.48;14.57;;;;;;;;;;5012888;28;20037;-59
2022/12/22 07:07:56;;;;;;;15.23;14.32;;;;;;;;;;5007900;28;20037;-59
2022/12/22 07:10:56;;;;;;;15.98;14.73;;;;;;;;;;5010847;28;20041;-59
2022/12/22 07:13:18;;;;;;;14.02;13.23;;;;;;;;;;5011406;28;20049;-61
2022/12/22 07:15:44;;;;;;;14.52;13.73;;;;;;;;;;5014293;28;20144;-58
2022/12/22 07:18:10;;;;;;;16.70;15.70;;;;;;;;;;5016311;28;20030;-59
2022/12/22 07:20:36;;;;;;;15.38;14.48;;;;;;;;;;5016635;28;20091;-58
2022/12/22 07:23:01;;;;;;;14.85;14.05;;;;;;;;;;5018144;28;20025;-58
2022/12/22 07:25:26;;;;;;;15.70;14.80;;;;;;;;;;5014329;28;20132;-59
2022/12/22 07:27:52;;;;;;;14.80;14.00;;;;;;;;;;5016228;28;20071;-59
2022/12/22 07:30:17;;;;;;;14.18;13.38;;;;;;;;;;5015473;28;20569;-58
2022/12/22 07:32:42;;;;;;;15.65;14.43;;;;;;;;;;5017015;28;20492;-59
2022/12/22 07:35:08;;;;;;;15.50;14.40;;;;;;;;;;5011802;28;20041;-60
2022/12/22 07:37:33;;;;;;;15.13;14.23;;;;;;;;;;5010533;28;20034;-59
2022/12/22 07:39:58;;;;;;;14.75;13.93;;;;;;;;;;5014787;28;20049;-59
2022/12/22 07:45:08;;;;;;;14.25;13.45;;;;;;;;;;5017453;28;20693;-60
2022/12/22 07:47:33;;;;;;;15.10;14.25;;;;;;;;;;5014357;28;20124;-60
2022/12/22 07:52:43;;;;;;;14.98;14.13;;;;;;;;;;5012752;28;20538;-60
2022/12/22 07:55:08;;;;;;;14.27;13.48;;;;;;;;;;5011897;28;20096;-60
2022/12/22 07:57:34;;;;;;;15.57;14.35;;;;;;;;;;5011293;28;20083;-60
2022/12/22 08:00:00;;;;;;;14.65;13.82;;;;;;;;;;5014596;28;20552;-60
2022/12/22 08:02:26;;;;;;;15.70;14.80;;;;;;;;;;5016181;28;20022;-59
2022/12/22 08:04:51;;;;;;;14.18;13.38;;;;;;;;;;5013715;28;20038;-51
2022/12/22 08:07:16;;;;;;;14.32;13.43;;;;;;;;;;5015938;28;20069;-50
2022/12/22 08:09:42;;;;;;;14.00;13.20;;;;;;;;;;5015172;28;20105;-50
2022/12/22 08:12:07;;;;;;;14.20;13.40;;;;;;;;;;5014198;28;20056;-51
2022/12/22 08:14:32;;;;;;;14.00;13.20;;;;;;;;;;5015887;28;20041;-50
2022/12/22 08:16:58;;;;;;;14.38;13.55;;;;;;;;;;5011688;28;20502;-49
2022/12/22 08:19:23;;;;;;;15.27;14.38;;;;;;;;;;5012438;28;20372;-51
2022/12/22 08:21:48;;;;;;;13.35;12.55;;;;;;;;;;5011465;28;20029;-48
2022/12/22 08:24:14;;;;;;;14.15;13.35;;;;;;;;;;5011514;28;20029;-49
2022/12/22 08:26:44;;;;;;;14.20;13.40;;;;;;;;;;5012577;28;20341;-48
2022/12/22 08:29:14;;;;;;;14.60;13.60;;;;;;;;;;5013048;28;20508;-49
2022/12/22 08:31:40;;;;;;;14.13;13.32;;;;;;;;;;5012220;28;20144;-50
2022/12/22 08:34:08;;;;;;;14.20;13.40;;;;;;;;;;5020877;28;20052;-49
2022/12/22 08:36:39;;;;;;;15.18;14.27;;;;;;;;;;5013422;28;20041;-50
2022/12/22 08:39:04;;;;;;;;;;;;;;;;;;5016142;28;20115;-51
2022/12/22 08:44:14;;;;;;;14.48;13.68;;;;;;;;;;5013451;28;20572;-51
2022/12/22 08:46:40;;;;;;;14.90;14.05;;;;;;;;;;5014078;28;20037;-52
2022/12/22 08:49:05;;;;;;;15.63;14.73;;;;;;;;;;5012752;28;20035;-48
2022/12/22 08:51:31;;;;;;;15.45;14.55;;;;;;;;;;5012463;28;20080;-50
2022/12/22 08:53:56;;;;;;;14.52;13.70;;;;;;;;;;5011567;28;20030;-48
2022/12/22 08:56:21;;;;;;;14.82;14.02;;;;;;;;;;5011398;28;20383;-52
2022/12/22 08:58:47;;;;;;;15.73;14.82;;;;;;;;;;5008540;28;20376;-52
2022/12/22 09:01:20;;;;;;;14.85;14.02;;;;;;;;;;5011579;28;20116;-50
2022/12/22 09:03:52;;;;;;;17.65;16.55;;;;;;;;;;5012270;28;20025;-59
2022/12/22 09:06:19;;;;;;;16.05;15.15;;;;;;;;;;5010876;28;20029;-59
2022/12/22 09:08:45;;;;;;;16.05;15.15;;;;;;;;;;5012018;28;20087;-58
2022/12/22 09:11:10;;;;;;;15.60;14.70;;;;;;;;;;5011308;28;20037;-59
2022/12/22 09:13:35;;;;;;;16.42;15.38;;;;;;;;;;5014922;28;20041;-59
2022/12/22 09:16:08;;;;;;;15.93;15.02;;;;;;;;;;5012839;28;20113;-59
2022/12/22 09:18:33;;;;;;;15.93;14.95;;;;;;;;;;5013501;28;20068;-61
2022/12/22 09:20:59;;;;;;;15.98;15.00;;;;;;;;;;5013080;28;20410;-58
2022/12/22 09:23:24;;;;;;;16.70;15.70;;;;;;;;;;5015171;28;20125;-58
2022/12/22 09:25:50;;;;;;;17.48;16.48;;;;;;;;;;5012024;28;20415;-59
2022/12/22 09:28:15;;;;;;;17.30;16.05;;;;;;;;;;5012821;28;20141;-59
2022/12/22 09:30:41;;;;;;;16.10;15.10;;;;;;;;;;5013038;28;20048;-59
2022/12/22 09:33:06;;;;;;;16.27;15.25;;;;;;;;;;5012786;28;20053;-59
2022/12/22 09:35:31;;;;;;;16.10;15.20;;;;;;;;;;5011886;28;20034;-58
2022/12/22 09:37:57;;;;;;;17.88;16.67;;;;;;;;;;5010376;28;20037;-59
2022/12/22 09:40:23;;;;;;;16.55;15.55;;;;;;;;;;5012588;28;20151;-59
2022/12/22 09:42:49;;;;;;;17.52;16.42;;;;;;;;;;5011203;28;20141;-59
2022/12/22 09:45:18;;;;;;;17.02;16.02;;;;;;;;;;5012637;28;20491;-58
2022/12/22 09:47:52;;;;;;;17.45;16.45;;;;;;;;;;4996439;28;20033;-58
2022/12/22 09:50:20;;;;;;;16.38;15.18;;;;;;;;;;5018358;28;20670;-59
2022/12/22 09:52:53;;;;;;;16.58;15.65;;;;;;;;;;5009536;28;20056;-59
2022/12/22 09:55:25;;;;;;;18.73;17.13;;;;;;;;;;5009195;28;20113;-59
2022/12/22 09:57:52;;;;;;;16.23;15.30;;;;;;;;;;5009258;28;20049;-60
2022/12/22 10:00:20;;;;;;;14.45;13.65;;;;;;;;;;5011809;28;20056;-58
2022/12/22 10:03:01;;;;;;;14.93;14.13;;;;;;;;;;5011999;28;20033;-60
2022/12/22 10:05:38;;;;;;;17.60;16.10;;;;;;;;;;5018338;28;20113;-58
2022/12/22 10:08:10;;;;;;;14.88;14.07;;;;;;;;;;5012306;28;20037;-58
2022/12/22 10:10:35;;;;;;;17.08;15.98;;;;;;;;;;5013341;28;20105;-59
2022/12/22 10:13:03;;;;;;;16.38;15.32;;;;;;;;;;5012694;28;20155;-58
2022/12/22 10:15:37;;;;;;;15.40;14.50;;;;;;;;;;5009639;28;20044;-59
2022/12/22 10:18:20;;;;;;;15.02;14.20;;;;;;;;;;5010193;28;20041;-59
2022/12/22 10:21:08;;;;;;;15.60;14.07;;;;;;;;;;5009088;28;20041;-58
2022/12/22 10:23:39;;;;;;;15.55;14.65;;;;;;;;;;5011310;28;20065;-58
2022/12/22 10:26:20;;;;;;;15.10;14.20;;;;;;;;;;5012029;28;20041;-58
2022/12/22 10:28:54;;;;;;;;;;;;;;;;;;5013434;28;20056;-58
2022/12/22 10:31:29;;;;;;;14.95;14.10;;;;;;;;;;5009348;28;20270;-59
2022/12/22 10:34:08;;;;;;;14.00;13.20;;;;;;;;;;5028471;28;20113;-58
2022/12/22 10:36:34;;;;;;;14.35;13.55;;;;;;;;;;5011874;28;20029;-59
2022/12/22 10:39:05;;;;;;;15.07;14.18;;;;;;;;;;5010892;28;20566;-59
2022/12/22 10:41:41;;;;;;;15.85;14.95;;;;;;;;;;5012654;28;20087;-58
2022/12/22 10:44:20;;;;;;;16.50;15.60;;;;;;;;;;5011714;28;20446;-61
2022/12/22 10:46:59;;;;;;;15.23;14.38;;;;;;;;;;5013206;28;20736;-60
2022/12/22 10:49:38;;;;;;;14.88;14.05;;;;;;;;;;5017488;28;20689;-59
2022/12/22 10:52:14;;;;;;;15.15;14.25;;;;;;;;;;5015709;28;20104;-60
2022/12/22 10:54:41;;;;;;;16.13;15.23;;;;;;;;;;5017843;28;20713;-59
2022/12/22 10:57:12;;;;;;;15.90;15.00;;;;;;;;;;5012655;28;20037;-60
2022/12/22 10:59:56;;;;;;;16.10;15.13;;;;;;;;;;5018493;28;20601;-59
2022/12/22 11:02:27;;;;;;;15.63;14.55;;;;;;;;;;5018327;28;20065;-60
2022/12/22 11:04:59;;;;;;;17.80;16.80;;;;;;;;;;5015194;28;20513;-60
2022/12/22 11:07:24;;;;;;;16.38;15.48;;;;;;;;;;5014435;28;20061;-60
2022/12/22 11:09:50;;;;;;;17.90;16.83;;;;;;;;;;5011753;28;20083;-60
2022/12/22 11:12:32;;;;;;;16.23;15.32;;;;;;;;;;5011701;28;20042;-59
2022/12/22 11:15:09;;;;;;;16.52;15.63;;;;;;;;;;5010804;28;20026;-59
2022/12/22 11:17:41;;;;;;;16.13;14.98;;;;;;;;;;5014126;28;20086;-59
2022/12/22 11:20:43;;;;;;;16.35;15.45;;;;;;;;;;5014668;28;20044;-59
2022/12/22 11:23:33;;;;;;;17.02;16.02;;;;;;;;;;5015508;28;20037;-59
2022/12/22 11:26:08;;;;;;;18.23;17.13;;;;;;;;;;5015226;28;20029;-59
2022/12/22 11:28:55;;;;;;;16.70;15.80;;;;;;;;;;5014559;28;20107;-60
2022/12/22 11:31:29;;;;;;;16.38;15.48;;;;;;;;;;5011970;28;20033;-60
2022/12/22 11:34:25;;;;;;;17.20;16.20;;;;;;;;;;5016320;28;20100;-59
2022/12/22 11:36:51;;;;;;;16.02;15.13;;;;;;;;;;5013093;28;20048;-59
2022/12/22 11:39:46;;;;;;;16.75;15.85;;;;;;;;;;5014469;28;20037;-59
2022/12/22 11:42:37;;;;;;;18.25;17.25;;;;;;;;;;5012382;28;20030;-60
2022/12/22 11:45:08;;;;;;;18.23;17.05;;;;;;;;;;5016012;28;20065;-59
2022/12/22 11:48:19;;;;;;;17.02;16.13;;;;;;;;;;5014529;28;20052;-59
2022/12/22 11:50:55;;;;;;;16.58;15.65;;;;;;;;;;5013706;28;20348;-59
2022/12/22 11:54:00;;;;;;;15.85;14.95;;;;;;;;;;5016785;28;20363;-58
2022/12/22 11:56:34;;;;;;;16.27;15.38;;;;;;;;;;5016086;28;20099;-58
2022/12/22 11:59:02;;;;;;;16.35;15.35;;;;;;;;;;5008884;28;20033;-59
2022/12/22 12:01:46;;;;;;;15.73;14.82;;;;;;;;;;5013827;28;20067;-58
2022/12/22 12:04:26;;;;;;;16.48;15.57;;;;;;;;;;5023996;28;20029;-59
2022/12/22 12:07:30;;;;;;;16.10;15.20;;;;;;;;;;5010065;28;20041;-59
2022/12/22 12:10:16;;;;;;;14.55;13.75;;;;;;;;;;5016354;28;20037;-59
2022/12/22 12:13:02;;;;;;;15.93;15.02;;;;;;;;;;5013460;28;20124;-58
2022/12/22 12:15:31;;;;;;;14.85;14.05;;;;;;;;;;5011326;28;20045;-58
2022/12/22 12:18:25;;;;;;;15.68;14.77;;;;;;;;;;5011574;28;20539;-59
2022/12/22 12:21:20;;;;;;;13.80;13.00;;;;;;;;;;5011730;28;20129;-60
2022/12/22 12:24:06;;;;;;;14.80;14.00;;;;;;;;;;5015238;28;20048;-58
2022/12/22 12:26:45;;;;;;;14.10;13.30;;;;;;;;;;5016190;28;20048;-60
2022/12/22 12:29:27;;;;;;;15.48;14.57;;;;;;;;;;5012968;28;20040;-59
2022/12/22 12:32:04;;;;;;;15.38;14.48;;;;;;;;;;5014817;28;20045;-57
2022/12/22 12:34:34;;;;;;;14.10;13.30;;;;;;;;;;5013467;28;20551;-59
2022/12/22 12:37:21;;;;;;;15.50;14.60;;;;;;;;;;5013155;28;20033;-60
2022/12/22 12:40:05;;;;;;;13.98;13.18;;;;;;;;;;5014257;28;20033;-59
2022/12/22 12:42:37;;;;;;;14.93;14.13;;;;;;;;;;5013413;28;20065;-59
2022/12/22 12:45:37;;;;;;;14.55;13.75;;;;;;;;;;5011434;28;20041;-59
2022/12/22 12:48:23;;;;;;;14.68;13.88;;;;;;;;;;5012026;28;20122;-60
2022/12/22 12:50:49;;;;;;;15.10;14.25;;;;;;;;;;5012277;28;20112;-60
2022/12/22 12:53:22;;;;;;;16.05;15.15;;;;;;;;;;5012478;28;20030;-59
2022/12/22 12:55:50;;;;;;;16.50;15.60;;;;;;;;;;5013007;28;20109;-60
2022/12/22 12:58:34;;;;;;;16.70;15.80;;;;;;;;;;5012989;28;20780;-60
2022/12/22 13:01:01;;;;;;;16.33;15.43;;;;;;;;;;5012707;28;20113;-61
2022/12/22 13:03:26;;;;;;;17.05;16.10;;;;;;;;;;5011473;28;20124;-59
2022/12/22 13:06:02;;;;;;;17.48;16.50;;;;;;;;;;5013672;28;20467;-60
2022/12/22 13:08:50;;;;;;;17.23;16.25;;;;;;;;;;5015255;28;20141;-61
2022/12/22 13:11:17;;;;;;;17.27;16.27;;;;;;;;;;5013447;28;20036;-60
2022/12/22 13:13:45;;;;;;;17.17;16.23;;;;;;;;;;5012679;28;20095;-60
2022/12/22 13:16:10;;;;;;;18.98;17.95;;;;;;;;;;5014771;28;20735;-62
2022/12/22 13:18:43;;;;;;;18.48;17.48;;;;;;;;;;5012623;28;20037;-62
2022/12/22 13:21:25;;;;;;;19.42;18.33;;;;;;;;;;5014680;28;20044;-61
2022/12/22 13:23:53;;;;;;;15.88;14.98;;;;;;;;;;5012103;28;20048;-60
2022/12/22 13:26:21;;;;;;;16.60;15.68;;;;;;;;;;5014265;28;20406;-60
2022/12/22 13:28:53;;;;;;;17.33;16.35;;;;;;;;;;5011998;28;20096;-60
2022/12/22 13:31:22;;;;;;;19.08;18.05;;;;;;;;;;5015046;28;20034;-60
2022/12/22 13:34:02;;;;;;;21.38;20.23;;;;;;;;;;5016688;28;20535;-60
2022/12/22 13:36:28;;;;;;;19.75;18.60;;;;;;;;;;5014940;28;20375;-60
2022/12/22 13:39:03;;;;;;;19.55;18.48;;;;;;;;;;5010406;28;20566;-60
2022/12/22 13:41:30;;;;;;;16.52;15.63;;;;;;;;;;5014054;28;20052;-62
2022/12/22 13:44:03;;;;;;;16.60;15.70;;;;;;;;;;5010190;28;20473;-59
2022/12/22 13:46:31;;;;;;;16.38;15.48;;;;;;;;;;5010694;28;20092;-61
2022/12/22 13:48:59;;;;;;;16.88;15.68;;;;;;;;;;5009293;28;20119;-60
2022/12/22 13:51:32;;;;;;;15.85;14.95;;;;;;;;;;5010676;28;20041;-61
2022/12/22 13:54:25;;;;;;;14.63;13.82;;;;;;;;;;5011108;28;20053;-60
2022/12/22 13:56:57;;;;;;;13.80;13.00;;;;;;;;;;5009132;28;20102;-58
2022/12/22 13:59:29;;;;;;;14.02;13.23;;;;;;;;;;5010945;28;20076;-58
2022/12/22 14:02:08;;;;;;;14.75;13.75;;;;;;;;;;5012907;28;20087;-58
2022/12/22 14:04:35;;;;;;;13.40;12.60;;;;;;;;;;5010640;28;20025;-58
2022/12/22 14:07:15;;;;;;;13.93;13.13;;;;;;;;;;5012456;28;20039;-58
2022/12/22 14:09:48;;;;;;;14.13;13.32;;;;;;;;;;5014363;28;20071;-58
2022/12/22 14:12:23;;;;;;;13.60;12.80;;;;;;;;;;5018045;28;20033;-58
2022/12/22 14:14:51;;;;;;;13.45;12.68;;;;;;;;;;5010987;28;20080;-58
2022/12/22 14:17:22;;;;;;;15.35;14.45;;;;;;;;;;5012224;28;20041;-58
2022/12/22 14:19:54;;;;;;;13.82;13.02;;;;;;;;;;5013329;28;20044;-58
2022/12/22 14:22:26;;;;;;;13.68;12.88;;;;;;;;;;5013592;28;20048;-59
2022/12/22 14:24:57;;;;;;;14.93;13.48;;;;;;;;;;5016816;28;20041;-58
2022/12/22 14:27:48;;;;;;;13.43;12.63;;;;;;;;;;5013457;28;20120;-58
2022/12/22 14:30:23;;;;;;;14.18;13.38;;;;;;;;;;5016341;28;20041;-51
2022/12/22 14:32:51;;;;;;;13.60;12.80;;;;;;;;;;5015329;28;20033;-53
2022/12/22 14:35:20;;;;;;;13.25;12.45;;;;;;;;;;5018113;28;20060;-57
2022/12/22 14:37:50;;;;;;;13.20;12.40;;;;;;;;;;5016361;28;20041;-57
2022/12/22 14:40:33;;;;;;;14.10;13.30;;;;;;;;;;5018420;28;20630;-57
2022/12/22 14:43:01;;;;;;;13.55;12.75;;;;;;;;;;5014750;28;20048;-58
2022/12/22 14:45:27;;;;;;;14.00;13.20;;;;;;;;;;5018123;28;20046;-59
2022/12/22 14:47:53;;;;;;;14.88;13.88;;;;;;;;;;5015274;28;20052;-59
2022/12/22 14:50:22;;;;;;;13.95;13.15;;;;;;;;;;5017483;28;20131;-59
2022/12/22 14:52:58;;;;;;;13.50;12.70;;;;;;;;;;5016796;28;20162;-59
2022/12/22 14:55:27;;;;;;;13.50;12.70;;;;;;;;;;5016408;28;20759;-59
2022/12/22 14:57:57;;;;;;;14.65;13.77;;;;;;;;;;5013753;28;20192;-60
2022/12/22 15:00:23;;;;;;;13.70;12.90;;;;;;;;;;5016843;28;20033;-59
2022/12/22 15:02:52;;;;;;;14.43;13.55;;;;;;;;;;5017151;28;20030;-59
2022/12/22 15:05:25;;;;;;;13.88;13.07;;;;;;;;;;5017574;28;20037;-59
2022/12/22 15:07:52;;;;;;;14.13;13.18;;;;;;;;;;5012351;28;20057;-59
2022/12/22 15:10:18;;;;;;;14.30;13.50;;;;;;;;;;5015233;28;20145;-58
2022/12/22 15:12:44;;;;;;;14.38;13.57;;;;;;;;;;5014186;28;20045;-60
2022/12/22 15:15:13;;;;;;;14.60;13.80;;;;;;;;;;5012762;28;20042;-59
2022/12/22 15:17:39;;;;;;;13.30;12.50;;;;;;;;;;5013132;28;20030;-59
2022/12/22 15:20:05;;;;;;;15.00;14.18;;;;;;;;;;5013472;28;20037;-59
2022/12/22 15:22:30;;;;;;;14.93;14.02;;;;;;;;;;5014049;28;20034;-59
2022/12/22 15:24:56;;;;;;;14.23;13.43;;;;;;;;;;5014008;28;20038;-60
2022/12/22 15:27:21;;;;;;;14.77;13.98;;;;;;;;;;5014670;28;20103;-59
2022/12/22 15:29:46;;;;;;;15.10;14.25;;;;;;;;;;5013862;28;20111;-59
2022/12/22 15:32:12;;;;;;;15.00;14.18;;;;;;;;;;5014155;28;20116;-58
2022/12/22 15:34:38;;;;;;;14.73;13.93;;;;;;;;;;5014207;28;20033;-58
2022/12/22 15:37:04;;;;;;;14.82;14.02;;;;;;;;;;5013448;28;20041;-59
2022/12/22 15:39:29;;;;;;;13.98;13.18;;;;;;;;;;5014949;28;20030;-59
2022/12/22 15:41:55;;;;;;;13.82;13.02;;;;;;;;;;5015577;28;20053;-59
2022/12/22 15:44:21;;;;;;;16.02;15.13;;;;;;;;;;5013714;28;20116;-64
2022/12/22 15:46:54;;;;;;;14.63;13.82;;;;;;;;;;5013890;28;20073;-65
2022/12/22 15:49:23;;;;;;;13.48;12.68;;;;;;;;;;5016325;28;20049;-67
2022/12/22 15:51:51;;;;;;;14.43;13.63;;;;;;;;;;5016436;28;20057;-63
2022/12/22 15:54:17;;;;;;;14.80;14.00;;;;;;;;;;5016761;28;20555;-64
2022/12/22 15:56:43;;;;;;;14.85;14.02;;;;;;;;;;5014918;28;20110;-64
2022/12/22 15:59:15;;;;;;;15.23;14.35;;;;;;;;;;5013109;28;20176;-63
2022/12/22 16:01:40;;;;;;;14.07;13.27;;;;;;;;;;5014571;28;20614;-64
2022/12/22 16:04:06;;;;;;;14.82;14.02;;;;;;;;;;5016290;28;20129;-63
2022/12/22 16:06:31;;;;;;;15.13;14.25;;;;;;;;;;5016933;28;20029;-65
2022/12/22 16:08:56;;;;;;;14.88;14.05;;;;;;;;;;5012579;28;20042;-63
2022/12/22 16:11:22;;;;;;;15.77;14.88;;;;;;;;;;5013537;28;20105;-63
2022/12/22 16:13:48;;;;;;;15.60;14.70;;;;;;;;;;5015792;28;20144;-63
2022/12/22 16:16:14;;;;;;;14.68;13.85;;;;;;;;;;5014094;28;20084;-64
2022/12/22 16:18:39;;;;;;;14.82;14.02;;;;;;;;;;5014373;28;20025;-63
2022/12/22 16:21:13;;;;;;;15.05;14.15;;;;;;;;;;5013199;28;20761;-63
2022/12/22 16:23:40;;;;;;;14.55;13.75;;;;;;;;;;5012393;28;20041;-61
2022/12/22 16:26:06;;;;;;;15.20;14.30;;;;;;;;;;5012592;28;20112;-62
2022/12/22 16:28:32;;;;;;;15.02;14.13;;;;;;;;;;5009450;28;20153;-62
2022/12/22 16:30:58;;;;;;;14.43;13.48;;;;;;;;;;5013581;28;20037;-62
2022/12/22 16:33:23;;;;;;;13.80;13.00;;;;;;;;;;5014933;28;20044;-61
2022/12/22 16:35:49;;;;;;;14.35;13.48;;;;;;;;;;5011596;28;20450;-62
2022/12/22 16:38:14;;;;;;;17.92;16.73;;;;;;;;;;5013372;28;20057;-63
2022/12/22 16:40:43;;;;;;;16.30;14.98;;;;;;;;;;5012656;28;20060;-57
2022/12/22 16:43:30;;;;;;;14.50;13.68;;;;;;;;;;5014652;28;20065;-58
2022/12/22 16:45:56;;;;;;;16.00;15.00;;;;;;;;;;5010630;28;20044;-57
2022/12/22 16:48:39;;;;;;;15.18;14.30;;;;;;;;;;5011327;28;20963;-57
2022/12/22 16:51:05;;;;;;;13.80;13.00;;;;;;;;;;5011507;28;20058;-57
2022/12/22 16:53:31;;;;;;;13.95;13.07;;;;;;;;;;5012687;28;20029;-58
2022/12/22 16:55:58;;;;;;;14.00;13.20;;;;;;;;;;5010621;28;20273;-58
2022/12/22 16:58:24;;;;;;;14.25;13.45;;;;;;;;;;5013510;28;20045;-57
2022/12/22 17:00:50;;;;;;;14.60;13.80;;;;;;;;;;5012157;28;20477;-58
2022/12/22 17:03:25;;;;;;;16.73;15.73;;;;;;;;;;5011900;28;20026;-58
2022/12/22 17:05:53;;;;;;;15.02;14.02;;;;;;;;;;5012298;28;20045;-58
2022/12/22 17:08:38;;;;;;;14.90;13.98;;;;;;;;;;5009489;28;20034;-58
2022/12/22 17:11:07;;;;;;;13.73;12.93;;;;;;;;;;5009499;28;20042;-58
2022/12/22 17:13:32;;;;;;;13.10;12.30;;;;;;;;;;5014037;28;20033;-58
2022/12/22 17:16:00;;;;;;;13.73;12.93;;;;;;;;;;5013517;28;20034;-58
2022/12/22 17:18:26;;;;;;;14.73;13.88;;;;;;;;;;5017435;28;20029;-59
2022/12/22 17:20:55;;;;;;;14.25;12.93;;;;;;;;;;5013424;28;20625;-58
2022/12/22 17:23:33;;;;;;;14.25;13.40;;;;;;;;;;5014393;28;20842;-58
2022/12/22 17:26:01;;;;;;;14.23;13.43;;;;;;;;;;5010818;28;20037;-59
2022/12/22 17:28:27;;;;;;;16.13;15.10;;;;;;;;;;5008638;28;20785;-59
2022/12/22 17:30:53;;;;;;;14.63;13.82;;;;;;;;;;5013342;28;20423;-59
2022/12/22 17:33:18;;;;;;;13.32;12.52;;;;;;;;;;5013208;28;20034;-59
2022/12/22 17:35:45;;;;;;;13.57;12.77;;;;;;;;;;5011499;28;20112;-58
2022/12/22 17:38:17;;;;;;;15.25;14.35;;;;;;;;;;5011259;28;20042;-59
2022/12/22 17:40:43;;;;;;;15.02;14.13;;;;;;;;;;5012368;28;20103;-59
2022/12/22 17:43:13;;;;;;;14.65;13.85;;;;;;;;;;5014004;28;20025;-59
2022/12/22 17:45:39;;;;;;;14.77;13.87;;;;;;;;;;5009805;28;20033;-59
2022/12/22 17:48:05;;;;;;;13.15;12.35;;;;;;;;;;5006259;28;21151;-59
2022/12/22 17:50:30;;;;;;;14.93;13.45;;;;;;;;;;5009790;28;20088;-58
2022/12/22 17:52:56;;;;;;;14.15;13.35;;;;;;;;;;5008496;28;20119;-59
2022/12/22 17:55:24;;;;;;;14.27;13.38;;;;;;;;;;5012541;28;20125;-58
2022/12/22 17:57:51;;;;;;;16.30;15.30;;;;;;;;;;5016806;28;20488;-58
2022/12/22 18:00:17;;;;;;;14.70;13.80;;;;;;;;;;5008218;28;20103;-59
2022/12/22 18:02:43;;;;;;;13.18;12.38;;;;;;;;;;5008212;28;20041;-59
2022/12/22 18:05:16;;;;;;;14.48;13.57;;;;;;;;;;5006210;28;20045;-58
2022/12/22 18:07:43;;;;;;;14.85;13.95;;;;;;;;;;5010609;28;20038;-59
2022/12/22 18:10:28;;;;;;;14.88;13.98;;;;;;;;;;5011199;28;20129;-59
2022/12/22 18:12:56;;;;;;;15.13;14.25;;;;;;;;;;5010240;28;20124;-58
2022/12/22 18:15:23;;;;;;;14.48;13.68;;;;;;;;;;5014334;28;20035;-59
2022/12/22 18:17:49;;;;;;;14.85;13.98;;;;;;;;;;5008175;28;20551;-63